createdAt,value
2022-10-12T00:00:29.383Z,16.04
2022-10-12T00:02:56.812Z,15.98
2022-10-12T00:05:24.174Z,16.04
2022-10-12T00:07:51.525Z,16.00
2022-10-12T00:10:19.042Z,15.97
2022-10-12T00:12:46.380Z,15.99
2022-10-12T00:15:13.734Z,16.02
2022-10-12T00:17:41.119Z,16.13
2022-10-12T00:20:08.761Z,16.14
2022-10-12T00:22:36.065Z,16.11
2022-10-12T00:25:03.668Z,15.98
2022-10-12T00:27:31.045Z,15.97
2022-10-12T00:29:58.408Z,15.90
2022-10-12T00:32:25.757Z,15.93
2022-10-12T00:34:53.220Z,15.91
2022-10-12T00:37:20.535Z,15.93
2022-10-12T00:39:48.676Z,15.87
2022-10-12T00:42:18.994Z,15.85
2022-10-12T00:44:48.735Z,15.90
2022-10-12T00:47:38.469Z,15.95
2022-10-12T00:50:18.786Z,15.97
2022-10-12T00:53:01.363Z,15.90
2022-10-12T00:55:36.472Z,15.86
2022-10-12T00:58:06.513Z,15.78
2022-10-12T01:00:35.411Z,15.72
2022-10-12T01:03:04.903Z,15.72
2022-10-12T01:05:33.087Z,15.69
2022-10-12T01:08:02.592Z,15.64
2022-10-12T01:10:29.949Z,15.65
2022-10-12T01:12:57.471Z,15.67
2022-10-12T01:15:31.418Z,15.64
2022-10-12T01:18:45.511Z,15.68
2022-10-12T01:21:21.251Z,15.62
2022-10-12T01:24:13.062Z,15.58
2022-10-12T01:26:43.213Z,15.58
2022-10-12T01:29:22.349Z,15.57
2022-10-12T01:31:57.693Z,15.42
2022-10-12T01:34:25.006Z,15.41
2022-10-12T01:37:05.235Z,15.45
2022-10-12T01:39:43.038Z,15.40
2022-10-12T01:42:17.877Z,15.36
2022-10-12T01:44:45.259Z,15.38
2022-10-12T01:47:14.002Z,15.45
2022-10-12T01:49:41.597Z,15.47
2022-10-12T01:52:21.135Z,15.40
2022-10-12T01:54:51.497Z,15.25
2022-10-12T01:57:38.454Z,15.20
2022-10-12T02:00:15.202Z,15.23
2022-10-12T02:03:00.517Z,15.06
2022-10-12T02:05:34.646Z,15.05
2022-10-12T02:08:09.242Z,14.96
2022-10-12T02:10:58.519Z,14.93
2022-10-12T02:13:30.263Z,14.97
2022-10-12T02:16:01.667Z,14.97
2022-10-12T02:18:29.413Z,15.01
2022-10-12T02:20:59.916Z,15.03
2022-10-12T02:23:28.732Z,15.03
2022-10-12T02:26:00.604Z,15.08
2022-10-12T02:28:30.544Z,15.12
2022-10-12T02:31:35.706Z,15.10
2022-10-12T02:34:11.102Z,15.09
2022-10-12T02:36:50.677Z,15.14
2022-10-12T02:39:23.992Z,15.13
2022-10-12T02:41:57.625Z,14.98
2022-10-12T02:44:33.357Z,14.96
2022-10-12T02:47:04.419Z,15.05
2022-10-12T02:49:33.047Z,15.03
2022-10-12T02:52:01.966Z,15.08
2022-10-12T02:54:30.099Z,15.10
2022-10-12T02:56:57.450Z,15.13
2022-10-12T02:59:24.955Z,15.14
2022-10-12T03:01:52.328Z,15.14
2022-10-12T03:04:20.044Z,15.18
2022-10-12T03:06:47.429Z,15.21
2022-10-12T03:09:14.728Z,15.18
2022-10-12T03:11:44.898Z,15.15
2022-10-12T03:14:13.591Z,15.14
2022-10-12T03:16:41.385Z,15.14
2022-10-12T03:19:09.028Z,15.16
2022-10-12T03:21:36.390Z,15.22
2022-10-12T03:24:03.710Z,15.29
2022-10-12T03:26:31.071Z,15.31
2022-10-12T03:28:58.594Z,15.38
2022-10-12T03:31:25.944Z,15.41
2022-10-12T03:33:53.358Z,15.34
2022-10-12T03:36:20.771Z,15.30
2022-10-12T03:38:48.339Z,15.23
2022-10-12T03:41:15.688Z,15.25
2022-10-12T03:43:43.049Z,15.20
2022-10-12T03:46:10.364Z,15.17
2022-10-12T03:48:37.788Z,15.15
2022-10-12T03:51:05.261Z,15.14
2022-10-12T03:53:32.794Z,15.12
2022-10-12T03:56:00.222Z,15.21
2022-10-12T03:58:27.532Z,15.20
2022-10-12T04:00:55.375Z,15.12
2022-10-12T04:03:22.788Z,15.06
2022-10-12T04:05:57.910Z,15.03
2022-10-12T04:08:26.792Z,15.08
2022-10-12T04:10:54.639Z,15.01
2022-10-12T04:13:22.044Z,15.04
2022-10-12T04:15:49.611Z,15.13
2022-10-12T04:18:16.910Z,15.03
2022-10-12T04:20:47.615Z,15.00
2022-10-12T04:23:14.962Z,14.95
2022-10-12T04:25:42.342Z,15.04
2022-10-12T04:28:09.663Z,15.04
2022-10-12T04:30:37.120Z,15.01
2022-10-12T04:33:05.322Z,14.95
2022-10-12T04:35:32.782Z,14.97
2022-10-12T04:38:00.166Z,14.86
2022-10-12T04:40:27.513Z,14.85
2022-10-12T04:42:56.147Z,14.84
2022-10-12T04:45:23.659Z,14.96
2022-10-12T04:47:51.063Z,14.91
2022-10-12T04:50:18.451Z,14.89
2022-10-12T04:52:45.823Z,14.96
2022-10-12T04:55:13.620Z,14.96
2022-10-12T04:57:41.281Z,15.02
2022-10-12T05:00:10.668Z,14.93
2022-10-12T05:02:37.953Z,14.87
2022-10-12T05:05:05.651Z,14.81
2022-10-12T05:07:33.019Z,14.76
2022-10-12T05:10:00.580Z,14.83
2022-10-12T05:12:27.898Z,14.87
2022-10-12T05:14:55.392Z,14.87
2022-10-12T05:17:22.712Z,14.82
2022-10-12T05:19:53.050Z,14.86
2022-10-12T05:22:20.359Z,14.91
2022-10-12T05:24:51.389Z,14.93
2022-10-12T05:27:21.182Z,14.98
2022-10-12T05:29:48.727Z,14.90
2022-10-12T05:32:17.148Z,14.91
2022-10-12T05:34:44.732Z,14.89
2022-10-12T05:37:12.023Z,14.91
2022-10-12T05:39:40.682Z,14.95
2022-10-12T05:42:08.061Z,15.04
2022-10-12T05:44:35.622Z,15.06
2022-10-12T05:47:03.097Z,15.07
2022-10-12T05:49:31.027Z,15.16
2022-10-12T05:51:58.481Z,15.12
2022-10-12T05:54:26.068Z,15.06
2022-10-12T05:56:53.850Z,15.14
2022-10-12T05:59:21.950Z,15.15
2022-10-12T06:01:49.936Z,15.18
2022-10-12T06:04:17.454Z,15.23
2022-10-12T06:06:44.774Z,15.30
2022-10-12T06:09:12.981Z,15.54
2022-10-12T06:11:40.428Z,15.84
2022-10-12T06:14:07.883Z,15.93
2022-10-12T06:16:35.208Z,15.99
2022-10-12T06:19:02.454Z,15.90
2022-10-12T06:21:34.324Z,16.01
2022-10-12T06:24:02.201Z,16.26
2022-10-12T06:26:31.512Z,16.41
2022-10-12T06:29:00.809Z,16.58
2022-10-12T06:31:29.286Z,16.41
2022-10-12T06:33:56.660Z,16.33
2022-10-12T06:36:24.122Z,16.35
2022-10-12T06:38:51.587Z,16.41
2022-10-12T06:41:18.960Z,16.42
2022-10-12T06:43:46.321Z,16.33
2022-10-12T06:46:13.670Z,16.40
2022-10-12T06:48:41.165Z,16.46
2022-10-12T06:51:08.665Z,16.55
2022-10-12T06:53:36.691Z,16.65
2022-10-12T06:56:08.235Z,16.83
2022-10-12T06:58:35.938Z,16.93
2022-10-12T07:01:04.606Z,16.96
2022-10-12T07:03:32.567Z,16.98
2022-10-12T07:06:12.360Z,16.96
2022-10-12T07:08:41.408Z,16.98
2022-10-12T07:11:11.644Z,17.02
2022-10-12T07:13:39.839Z,17.16
2022-10-12T07:16:10.332Z,17.22
2022-10-12T07:18:39.259Z,17.29
2022-10-12T07:21:06.711Z,17.40
2022-10-12T07:23:34.912Z,17.51
2022-10-12T07:26:02.796Z,17.51
2022-10-12T07:28:30.227Z,17.63
2022-10-12T07:31:03.160Z,17.91
2022-10-12T07:33:34.685Z,18.14
2022-10-12T07:36:13.794Z,18.33
2022-10-12T07:38:45.318Z,19.21
2022-10-12T07:41:13.616Z,20.50
2022-10-12T07:43:41.319Z,21.90
2022-10-12T07:46:08.919Z,22.83
2022-10-12T07:48:36.429Z,23.86
2022-10-12T07:51:08.815Z,24.75
2022-10-12T07:53:38.117Z,25.39
2022-10-12T07:56:07.992Z,25.20
2022-10-12T07:58:35.337Z,25.29
2022-10-12T08:01:07.511Z,25.61
2022-10-12T08:03:35.112Z,25.46
2022-10-12T08:06:13.691Z,25.26
2022-10-12T08:08:42.700Z,25.15
2022-10-12T08:11:12.492Z,25.81
2022-10-12T08:13:41.178Z,26.80
2022-10-12T08:16:11.802Z,27.64
2022-10-12T08:18:39.451Z,28.57
2022-10-12T08:21:08.960Z,28.63
2022-10-12T08:23:37.162Z,28.77
2022-10-12T08:26:05.482Z,29.02
2022-10-12T08:28:34.336Z,29.05
2022-10-12T08:31:06.434Z,28.89
2022-10-12T08:33:35.165Z,27.86
2022-10-12T08:36:04.561Z,28.10
2022-10-12T08:38:35.078Z,28.52
2022-10-12T08:41:30.269Z,29.05
2022-10-12T08:44:27.294Z,29.40
2022-10-12T08:47:10.041Z,28.70
2022-10-12T08:49:40.239Z,28.41
2022-10-12T08:52:28.686Z,28.74
2022-10-12T08:55:00.754Z,28.72
2022-10-12T08:57:28.215Z,29.08
2022-10-12T08:59:55.613Z,29.54
2022-10-12T09:02:45.024Z,30.32
2022-10-12T09:05:21.713Z,30.30
2022-10-12T09:08:07.360Z,30.59
2022-10-12T09:10:49.814Z,30.17
2022-10-12T09:13:35.707Z,31.15
2022-10-12T09:16:23.096Z,30.98
2022-10-12T09:18:55.169Z,30.90
2022-10-12T09:21:25.442Z,31.51
2022-10-12T09:23:56.693Z,31.60
2022-10-12T09:26:29.801Z,31.17
2022-10-12T09:28:58.621Z,31.26
2022-10-12T09:31:38.640Z,30.88
2022-10-12T09:34:08.692Z,30.82
2022-10-12T09:36:38.711Z,30.02
2022-10-12T09:39:17.165Z,29.46
2022-10-12T09:41:46.809Z,29.01
2022-10-12T09:44:26.639Z,28.65
2022-10-12T09:46:58.577Z,28.47
2022-10-12T09:49:45.063Z,27.57
2022-10-12T09:52:15.248Z,28.32
2022-10-12T09:54:49.028Z,28.14
2022-10-12T09:57:30.531Z,29.32
2022-10-12T09:59:57.884Z,28.12
2022-10-12T10:02:26.774Z,27.49
2022-10-12T10:04:55.103Z,26.43
2022-10-12T10:07:28.330Z,26.31
2022-10-12T10:10:16.973Z,25.94
2022-10-12T10:12:53.525Z,25.53
2022-10-12T10:15:23.997Z,25.30
2022-10-12T10:17:54.718Z,25.19
2022-10-12T10:20:49.820Z,25.50
2022-10-12T10:23:25.888Z,25.30
2022-10-12T10:25:58.071Z,24.94
2022-10-12T10:28:30.059Z,25.10
2022-10-12T10:31:04.389Z,24.91
2022-10-12T10:33:34.059Z,24.74
2022-10-12T10:36:22.290Z,24.63
2022-10-12T10:39:05.413Z,24.49
2022-10-12T10:41:38.803Z,24.58
2022-10-12T10:44:27.162Z,24.51
2022-10-12T10:46:57.170Z,24.77
2022-10-12T10:49:59.273Z,24.55
2022-10-12T10:52:30.115Z,24.26
2022-10-12T10:55:20.631Z,24.23
2022-10-12T10:58:05.456Z,24.62
2022-10-12T11:00:40.085Z,24.44
2022-10-12T11:03:18.842Z,24.46
2022-10-12T11:05:54.683Z,24.17
2022-10-12T11:08:30.533Z,23.97
2022-10-12T11:11:02.510Z,24.06
2022-10-12T11:13:29.682Z,24.04
2022-10-12T11:16:09.082Z,24.07
2022-10-12T11:18:46.471Z,23.92
2022-10-12T11:21:26.734Z,23.95
2022-10-12T11:24:02.969Z,24.16
2022-10-12T11:26:43.585Z,24.29
2022-10-12T11:29:14.901Z,24.19
2022-10-12T11:31:49.230Z,24.15
2022-10-12T11:34:20.807Z,24.35
2022-10-12T11:37:17.702Z,24.51
2022-10-12T11:39:44.902Z,24.77
2022-10-12T11:42:21.699Z,24.63
2022-10-12T11:44:50.201Z,24.59
2022-10-12T11:47:29.988Z,24.79
2022-10-12T11:50:20.797Z,24.75
2022-10-12T11:52:54.830Z,24.77
2022-10-12T11:55:48.132Z,24.90
2022-10-12T11:58:42.225Z,25.20
2022-10-12T12:01:21.528Z,25.08
2022-10-12T12:04:48.582Z,25.16
2022-10-12T12:07:35.234Z,25.41
2022-10-12T12:10:25.576Z,25.16
2022-10-12T12:13:15.310Z,25.14
2022-10-12T12:15:49.918Z,24.96
2022-10-12T12:18:22.948Z,24.78
2022-10-12T12:21:06.105Z,24.74
2022-10-12T12:23:51.561Z,25.01
2022-10-12T12:26:21.608Z,24.82
2022-10-12T12:29:09.621Z,24.83
2022-10-12T12:31:37.762Z,24.68
2022-10-12T12:34:14.563Z,24.72
2022-10-12T12:36:46.353Z,24.73
2022-10-12T12:39:24.694Z,24.63
2022-10-12T12:42:06.855Z,24.68
2022-10-12T12:44:34.429Z,24.75
2022-10-12T12:47:26.033Z,24.77
2022-10-12T12:49:54.127Z,24.84
2022-10-12T12:52:34.325Z,24.76
2022-10-12T12:55:35.276Z,24.38
2022-10-12T12:58:08.494Z,24.03
2022-10-12T13:01:06.516Z,24.15
2022-10-12T13:03:47.962Z,24.20
2022-10-12T13:06:40.170Z,24.43
2022-10-12T13:09:26.690Z,24.21
2022-10-12T13:12:15.053Z,24.29
2022-10-12T13:15:00.933Z,24.45
2022-10-12T13:18:45.310Z,24.59
2022-10-12T13:21:15.945Z,24.46
2022-10-12T13:23:47.411Z,24.33
2022-10-12T13:26:21.498Z,24.38
2022-10-12T13:28:50.095Z,24.50
2022-10-12T13:31:34.714Z,24.51
2022-10-12T13:34:22.540Z,24.60
2022-10-12T13:37:03.814Z,24.51
2022-10-12T13:39:38.981Z,24.44
2022-10-12T13:42:06.847Z,24.40
2022-10-12T13:44:36.385Z,24.41
2022-10-12T13:47:24.355Z,24.26
2022-10-12T13:49:52.493Z,24.28
2022-10-12T13:52:32.555Z,24.33
2022-10-12T13:55:01.542Z,24.40
2022-10-12T13:57:39.183Z,24.54
2022-10-12T14:00:16.027Z,24.58
2022-10-12T14:03:06.395Z,24.41
2022-10-12T14:05:34.094Z,24.43
2022-10-12T14:08:14.162Z,24.43
2022-10-12T14:10:44.439Z,24.27
2022-10-12T14:13:15.775Z,24.32
2022-10-12T14:15:43.409Z,24.25
2022-10-12T14:18:38.168Z,24.17
2022-10-12T14:21:14.858Z,24.01
2022-10-12T14:24:09.620Z,23.93
2022-10-12T14:26:42.560Z,23.84
2022-10-12T14:29:31.428Z,23.78
2022-10-12T14:32:04.960Z,23.74
2022-10-12T14:34:38.910Z,23.67
2022-10-12T14:37:09.293Z,23.60
2022-10-12T14:39:36.863Z,23.56
2022-10-12T14:42:39.716Z,23.34
2022-10-12T14:45:24.558Z,23.41
2022-10-12T14:47:52.867Z,23.26
2022-10-12T14:50:23.948Z,23.15
2022-10-12T14:53:04.697Z,23.19
2022-10-12T14:55:34.062Z,23.20
2022-10-12T14:58:01.802Z,23.12
2022-10-12T15:00:33.413Z,23.12
2022-10-12T15:03:01.125Z,23.14
2022-10-12T15:05:31.842Z,23.23
2022-10-12T15:08:00.134Z,23.18
2022-10-12T15:10:28.495Z,23.09
2022-10-12T15:12:55.848Z,23.09
2022-10-12T15:15:28.987Z,23.10
2022-10-12T15:17:59.631Z,23.22
2022-10-12T15:20:30.793Z,23.18
2022-10-12T15:23:00.275Z,23.24
2022-10-12T15:25:49.693Z,22.91
2022-10-12T15:28:17.914Z,22.78
2022-10-12T15:31:04.550Z,22.66
2022-10-12T15:33:33.171Z,22.46
2022-10-12T15:36:01.123Z,22.42
2022-10-12T15:38:28.495Z,22.33
2022-10-12T15:40:58.037Z,22.24
2022-10-12T15:43:26.000Z,22.07
2022-10-12T15:45:56.603Z,22.01
2022-10-12T15:48:24.032Z,21.89
2022-10-12T15:50:54.150Z,21.84
2022-10-12T15:53:24.488Z,21.81
2022-10-12T15:55:53.162Z,21.73
2022-10-12T15:58:20.724Z,21.65
2022-10-12T16:00:48.447Z,21.59
2022-10-12T16:03:24.263Z,21.63
2022-10-12T16:05:53.746Z,21.56
2022-10-12T16:08:21.178Z,21.49
2022-10-12T16:10:49.036Z,21.47
2022-10-12T16:13:17.501Z,21.48
2022-10-12T16:15:45.072Z,21.43
2022-10-12T16:18:15.467Z,21.38
2022-10-12T16:20:42.866Z,21.36
2022-10-12T16:23:15.912Z,21.30
2022-10-12T16:25:46.142Z,21.34
2022-10-12T16:28:13.614Z,21.34
2022-10-12T16:30:41.995Z,21.22
2022-10-12T16:33:09.616Z,21.16
2022-10-12T16:35:39.379Z,21.07
2022-10-12T16:38:09.058Z,21.01
2022-10-12T16:40:41.062Z,20.99
2022-10-12T16:43:09.438Z,20.94
2022-10-12T16:45:37.471Z,20.91
2022-10-12T16:48:05.225Z,20.93
2022-10-12T16:50:33.172Z,20.86
2022-10-12T16:53:00.486Z,20.79
2022-10-12T16:55:27.904Z,20.73
2022-10-12T16:57:56.997Z,20.64
2022-10-12T17:00:24.348Z,20.61
2022-10-12T17:02:55.270Z,20.56
2022-10-12T17:05:24.778Z,20.47
2022-10-12T17:07:52.074Z,20.47
2022-10-12T17:10:19.589Z,20.42
2022-10-12T17:12:46.978Z,20.36
2022-10-12T17:15:14.378Z,20.30
2022-10-12T17:17:41.757Z,20.49
2022-10-12T17:20:09.682Z,20.75
2022-10-12T17:22:37.162Z,20.74
2022-10-12T17:25:04.843Z,20.73
2022-10-12T17:27:32.528Z,20.58
2022-10-12T17:29:59.954Z,20.53
2022-10-12T17:32:27.410Z,20.43
2022-10-12T17:34:54.782Z,20.29
2022-10-12T17:37:22.222Z,20.22
2022-10-12T17:39:50.412Z,20.19
2022-10-12T17:42:20.534Z,20.08
2022-10-12T17:44:47.873Z,20.05
2022-10-12T17:47:15.438Z,20.05
2022-10-12T17:49:42.992Z,19.95
2022-10-12T17:52:10.582Z,19.82
2022-10-12T17:54:37.858Z,19.91
2022-10-12T17:57:05.276Z,19.85
2022-10-12T17:59:32.695Z,19.87
2022-10-12T18:02:00.035Z,19.77
2022-10-12T18:04:27.368Z,19.89
2022-10-12T18:06:54.809Z,19.87
2022-10-12T18:09:22.162Z,19.82
2022-10-12T18:11:49.538Z,19.75
2022-10-12T18:14:16.902Z,19.69
2022-10-12T18:16:44.330Z,19.70
2022-10-12T18:19:14.596Z,19.83
2022-10-12T18:21:42.006Z,19.84
2022-10-12T18:24:16.517Z,19.71
2022-10-12T18:26:47.348Z,19.66
2022-10-12T18:29:18.000Z,19.63
2022-10-12T18:31:45.382Z,19.52
2022-10-12T18:34:12.879Z,19.40
2022-10-12T18:36:42.686Z,19.34
2022-10-12T18:39:10.152Z,19.24
2022-10-12T18:41:38.253Z,19.14
2022-10-12T18:44:05.622Z,19.20
2022-10-12T18:46:34.425Z,19.16
2022-10-12T18:49:05.148Z,19.24
2022-10-12T18:51:35.584Z,19.27
2022-10-12T18:54:06.889Z,19.07
2022-10-12T18:56:36.241Z,19.14
2022-10-12T18:59:04.456Z,19.08
2022-10-12T19:01:32.519Z,18.93
2022-10-12T19:04:01.875Z,18.97
2022-10-12T19:06:31.409Z,18.92
2022-10-12T19:08:59.807Z,18.85
2022-10-12T19:11:29.387Z,18.85
2022-10-12T19:13:58.224Z,18.81
2022-10-12T19:16:26.955Z,18.85
2022-10-12T19:18:59.979Z,18.83
2022-10-12T19:21:30.747Z,18.76
2022-10-12T19:24:01.451Z,18.72
2022-10-12T19:26:32.327Z,18.75
2022-10-12T19:29:00.031Z,18.60
2022-10-12T19:31:34.021Z,18.67
2022-10-12T19:34:05.177Z,18.74
2022-10-12T19:36:32.937Z,18.61
2022-10-12T19:39:02.910Z,18.73
2022-10-12T19:41:30.998Z,18.65
2022-10-12T19:43:59.957Z,18.51
2022-10-12T19:46:28.201Z,18.46
2022-10-12T19:48:57.451Z,18.28
2022-10-12T19:51:26.351Z,18.39
2022-10-12T19:53:55.044Z,18.34
2022-10-12T19:56:23.637Z,18.30
2022-10-12T19:58:53.756Z,18.24
2022-10-12T20:01:24.323Z,18.15
2022-10-12T20:03:52.157Z,18.09
2022-10-12T20:06:21.797Z,18.08
2022-10-12T20:08:51.594Z,17.99
2022-10-12T20:11:23.906Z,18.00
2022-10-12T20:13:52.467Z,18.01
2022-10-12T20:16:21.154Z,17.99
2022-10-12T20:18:49.685Z,18.00
2022-10-12T20:21:22.095Z,17.96
2022-10-12T20:23:50.182Z,17.96
2022-10-12T20:26:23.861Z,17.85
2022-10-12T20:28:52.565Z,17.88
2022-10-12T20:31:23.373Z,17.83
2022-10-12T20:33:55.879Z,17.81
2022-10-12T20:36:26.607Z,17.77
2022-10-12T20:38:54.135Z,17.75
2022-10-12T20:41:21.926Z,17.69
2022-10-12T20:43:49.335Z,17.68
2022-10-12T20:46:18.503Z,17.68
2022-10-12T20:48:46.286Z,17.63
2022-10-12T20:51:35.929Z,17.65
2022-10-12T20:54:05.698Z,17.70
2022-10-12T20:56:33.554Z,17.54
2022-10-12T20:59:01.452Z,17.37
2022-10-12T21:01:29.357Z,17.27
2022-10-12T21:03:57.281Z,17.25
2022-10-12T21:06:25.087Z,17.28
2022-10-12T21:08:55.072Z,17.34
2022-10-12T21:11:23.576Z,17.26
2022-10-12T21:13:51.206Z,17.23
2022-10-12T21:16:19.278Z,17.22
2022-10-12T21:18:46.839Z,17.20
2022-10-12T21:21:17.187Z,17.21
2022-10-12T21:23:55.971Z,17.14
2022-10-12T21:26:25.582Z,17.04
2022-10-12T21:28:53.727Z,17.01
2022-10-12T21:31:22.183Z,16.98
2022-10-12T21:33:49.657Z,16.97
2022-10-12T21:36:18.210Z,17.01
2022-10-12T21:38:46.981Z,16.97
2022-10-12T21:41:15.739Z,17.01
2022-10-12T21:43:43.353Z,16.95
2022-10-12T21:46:13.813Z,16.89
2022-10-12T21:48:41.495Z,16.90
2022-10-12T21:51:09.303Z,16.91
2022-10-12T21:53:38.026Z,16.98
2022-10-12T21:56:12.953Z,17.00
2022-10-12T21:58:40.480Z,16.95
2022-10-12T22:01:11.041Z,16.97
2022-10-12T22:03:38.418Z,17.00
2022-10-12T22:06:06.418Z,16.98
2022-10-12T22:08:33.788Z,16.99
2022-10-12T22:11:08.964Z,16.94
2022-10-12T22:13:36.555Z,16.82
2022-10-12T22:16:06.859Z,16.85
2022-10-12T22:18:34.982Z,16.91
2022-10-12T22:21:04.592Z,16.82
2022-10-12T22:23:32.584Z,16.73
2022-10-12T22:26:06.467Z,16.67
2022-10-12T22:28:35.475Z,16.57
2022-10-12T22:31:07.494Z,16.56
2022-10-12T22:33:35.464Z,16.65
2022-10-12T22:36:04.359Z,16.67
2022-10-12T22:38:32.767Z,16.64
2022-10-12T22:41:08.312Z,16.67
2022-10-12T22:43:42.864Z,16.51
2022-10-12T22:46:10.523Z,16.59
2022-10-12T22:48:38.288Z,16.57
2022-10-12T22:51:06.773Z,16.51
2022-10-12T22:53:35.619Z,16.53
2022-10-12T22:56:06.603Z,16.65
2022-10-12T22:58:35.172Z,16.66
2022-10-12T23:01:04.470Z,16.67
2022-10-12T23:03:33.552Z,16.74
2022-10-12T23:06:04.628Z,16.73
2022-10-12T23:08:32.398Z,16.66
2022-10-12T23:11:07.508Z,16.57
2022-10-12T23:13:37.210Z,16.53
2022-10-12T23:16:16.082Z,16.45
2022-10-12T23:18:44.100Z,16.40
2022-10-12T23:21:14.546Z,16.29
2022-10-12T23:23:43.368Z,16.28
2022-10-12T23:26:22.410Z,16.28
2022-10-12T23:28:50.742Z,16.27
2022-10-12T23:31:26.768Z,16.35
2022-10-12T23:33:57.257Z,16.31
2022-10-12T23:36:25.304Z,16.25
2022-10-12T23:38:52.623Z,16.24
2022-10-12T23:41:20.386Z,16.17
2022-10-12T23:43:47.771Z,16.14
2022-10-12T23:46:15.191Z,16.13
2022-10-12T23:48:42.434Z,16.08
2022-10-12T23:51:10.930Z,16.08
2022-10-12T23:53:39.063Z,16.02
2022-10-12T23:56:07.003Z,16.01
2022-10-12T23:58:35.143Z,16.00
